Aeroporto :
LOGIN :

Iscrizione | Disclaimer

   EN    FR    IT 

 










Sommario :    VFR   VFR Marginale   IFR   IFR Intensivo   IFR Molto Intensivo
Visibilità : 
Base nubi : 
>= 8 km
>= 3000ft
5 / 8 km
1000 / 3000 ft
1500m / 5 km
500 / 1000 ft
800 / 1500m
200 / 500 ft
< 800m
< 200 ft
Simboli :   Temporali  Nebbia  Neve Forte  Precipitazioni Forti  Vento > 20 kt
SIGMETs :   Varie  Temporali  Ghiacco  Turbolenza  Onda orograficha  Ceneri Vulcaniche






- Altitudine del aeroporto : 160 ft
- Codice IATA : FMO


EDDG - Münster Osnabrück Int.

ULTIMO METAR :
  • 260550Z 13005KT 080V160 0700 R25/1000N FG OVC001 01/01 Q1017 NOSIG

METARs OBSOLETI :
  • 260520Z 13006KT 100V160 0500 R25/1000N FG OVC001 01/01 Q1017 NOSIG
  • 260450Z 14007KT 0500 R25/1400N FG OVC001 01/01 Q1018 NOSIG
  • 260420Z 14005KT 080V170 0600 R25/1500U FG OVC001 01/01 Q1018 NOSIG
  • 260350Z 14003KT 090V160 0600 R25/1500D FG OVC001 01/01 Q1018 NOSIG
  • 260320Z 13003KT 090V160 0700 R25/1500VP2000U FG OVC001 01/01 Q1018 NOSIG
  • 260250Z 15004KT 110V190 0900 R25/P2000N FG OVC001 01/01 Q1018 NOSIG

TAF TAF EDDG
Valido dal 26 a 06 ore il 27 a 06 ore UTC


260500Z 2606/2706 16005KT 0700 FG OVC001
BECMG 2606/2609 2500 BR BKN002
BECMG 2609/2612 9999 SCT010
BECMG 2703/2706 18010KT
TEMPO 2704/2706 4000 RA BKN014



MetMap, La meteo Aeronautica in un colpo d'occhio ! - Copyright ORBIFLY Dicembre 2007 - Disclaimer

ORBIFLY MET'MAP TEAM :

Programmazione e sviluppo : Alexandra Zaïnal
Concezione : Baudouin d'Aumeries
Aiuto per la programmazione : Marc-Olivier Méhu
Supporto tecnico e logistico : Manuel Goepfert
Aiuto per la traduzione : Arnaldo La Scala

Contatto : metmap@orbifly.com




FONTI E CREDITI :

   NOAA